createdAt,value
2018-01-04T00:00:09.962Z,7.10
2018-01-04T00:02:39.693Z,7.10
2018-01-04T00:05:08.643Z,7.00
2018-01-04T00:07:38.595Z,7.10
2018-01-04T00:10:07.602Z,7.00
2018-01-04T00:12:38.207Z,7.20
2018-01-04T00:15:17.158Z,7.20
2018-01-04T00:17:47.275Z,7.20
2018-01-04T00:20:16.265Z,7.10
2018-01-04T00:22:45.470Z,7.30
2018-01-04T00:25:14.820Z,7.30
2018-01-04T00:27:44.829Z,7.20
2018-01-04T00:30:14.124Z,6.80
2018-01-04T00:32:43.973Z,7.40
2018-01-04T00:35:12.995Z,7.40
2018-01-04T00:37:42.270Z,7.60
2018-01-04T00:40:14.253Z,7.40
2018-01-04T00:42:43.859Z,7.40
2018-01-04T00:45:12.802Z,7.30
2018-01-04T00:47:42.622Z,7.40
2018-01-04T00:50:12.371Z,7.40
2018-01-04T00:52:57.448Z,7.40
2018-01-04T00:55:28.479Z,7.40
2018-01-04T00:57:57.420Z,7.40
2018-01-04T01:00:37.666Z,7.50
2018-01-04T01:03:08.698Z,7.50
2018-01-04T01:05:37.799Z,7.50
2018-01-04T01:08:32.961Z,7.50
2018-01-04T01:14:08.032Z,7.30
2018-01-04T01:16:37.015Z,7.10
2018-01-04T01:19:05.999Z,7.20
2018-01-04T01:21:44.355Z,7.30
2018-01-04T01:24:14.280Z,7.00
2018-01-04T01:26:43.232Z,7.00
2018-01-04T01:29:12.196Z,7.20
2018-01-04T01:31:41.149Z,7.20
2018-01-04T01:34:10.116Z,7.20
2018-01-04T01:36:39.112Z,6.80
2018-01-04T01:39:08.122Z,7.40
2018-01-04T01:41:37.122Z,7.30
2018-01-04T01:44:07.181Z,7.40
2018-01-04T01:46:36.506Z,7.50
2018-01-04T01:49:16.221Z,7.40
2018-01-04T01:51:45.385Z,7.20
2018-01-04T01:54:14.473Z,7.30
2018-01-04T01:56:43.677Z,7.40
2018-01-04T01:59:12.821Z,7.40
2018-01-04T02:01:42.002Z,7.50
2018-01-04T02:04:11.018Z,7.40
2018-01-04T02:06:40.155Z,7.50
2018-01-04T02:09:09.923Z,7.50
2018-01-04T02:11:38.928Z,7.40
2018-01-04T02:14:07.880Z,7.60
2018-01-04T02:16:37.638Z,7.50
2018-01-04T02:19:24.156Z,7.60
2018-01-04T02:25:23.176Z,7.40
2018-01-04T02:28:10.956Z,7.50
2018-01-04T02:34:09.061Z,7.60
2018-01-04T02:37:01.214Z,7.60
2018-01-04T02:39:48.065Z,7.60
2018-01-04T02:46:00.480Z,7.60
2018-01-04T02:48:29.485Z,7.60
2018-01-04T02:50:58.450Z,7.70
2018-01-04T02:53:27.449Z,7.60
2018-01-04T02:55:56.398Z,7.60
2018-01-04T02:58:25.528Z,7.60
2018-01-04T03:00:54.484Z,7.50
2018-01-04T03:03:23.484Z,7.70
2018-01-04T03:05:52.562Z,7.50
2018-01-04T03:08:21.562Z,7.60
2018-01-04T03:10:50.514Z,7.50
2018-01-04T03:13:19.509Z,7.40
2018-01-04T03:15:48.444Z,7.50
2018-01-04T03:18:17.439Z,7.60
2018-01-04T03:20:46.984Z,7.60
2018-01-04T03:23:21.681Z,7.40
2018-01-04T03:25:56.162Z,7.60
2018-01-04T03:28:31.424Z,7.70
2018-01-04T03:31:05.891Z,7.70
2018-01-04T03:33:40.444Z,7.80
2018-01-04T03:36:15.824Z,7.90
2018-01-04T03:38:50.264Z,8.00
2018-01-04T03:41:24.732Z,7.80
2018-01-04T03:43:59.989Z,8.00
2018-01-04T03:46:34.544Z,8.00
2018-01-04T03:52:18.683Z,7.90
2018-01-04T03:54:53.312Z,7.90
2018-01-04T04:00:31.221Z,8.00
2018-01-04T04:03:00.192Z,8.10
2018-01-04T04:05:35.501Z,8.10
2018-01-04T04:08:09.947Z,8.00
2018-01-04T04:10:38.914Z,8.10
2018-01-04T04:13:13.011Z,7.90
2018-01-04T04:15:41.970Z,8.10
2018-01-04T04:18:10.964Z,8.00
2018-01-04T04:20:40.685Z,8.20
2018-01-04T04:23:09.651Z,8.20
2018-01-04T04:25:39.394Z,8.20
2018-01-04T04:28:08.371Z,8.20
2018-01-04T04:30:37.343Z,8.20
2018-01-04T04:33:07.071Z,8.20
2018-01-04T04:35:36.803Z,8.10
2018-01-04T04:38:05.753Z,8.00
2018-01-04T04:40:38.057Z,7.80
2018-01-04T04:43:07.013Z,8.00
2018-01-04T04:45:36.759Z,8.20
2018-01-04T04:48:05.720Z,8.20
2018-01-04T04:50:35.456Z,8.20
2018-01-04T04:53:04.433Z,8.20
2018-01-04T04:55:34.174Z,8.20
2018-01-04T04:58:03.258Z,8.20
2018-01-04T05:00:32.960Z,8.20
2018-01-04T05:03:01.928Z,8.20
2018-01-04T05:05:31.664Z,8.20
2018-01-04T05:08:00.659Z,8.00
2018-01-04T05:10:29.623Z,8.00
2018-01-04T05:12:59.418Z,8.00
2018-01-04T05:15:28.375Z,8.00
2018-01-04T05:17:57.336Z,8.10
2018-01-04T05:20:26.356Z,7.90
2018-01-04T05:22:55.331Z,7.90
2018-01-04T05:25:24.287Z,8.10
2018-01-04T05:27:54.057Z,8.00
2018-01-04T05:30:29.878Z,8.10
2018-01-04T05:32:58.876Z,8.20
2018-01-04T05:35:27.859Z,8.20
2018-01-04T05:37:57.591Z,8.10
2018-01-04T05:40:26.565Z,8.10
2018-01-04T05:42:55.527Z,8.20
2018-01-04T05:45:24.496Z,8.10
2018-01-04T05:47:53.458Z,8.20
2018-01-04T05:50:22.439Z,8.20
2018-01-04T05:52:51.412Z,8.30
2018-01-04T05:55:21.137Z,8.30
2018-01-04T05:57:50.125Z,8.30
2018-01-04T06:00:19.835Z,8.50
2018-01-04T06:02:48.799Z,8.20
2018-01-04T06:05:17.790Z,8.30
2018-01-04T06:07:46.767Z,8.30
2018-01-04T06:10:15.711Z,8.40
2018-01-04T06:12:44.671Z,8.50
2018-01-04T06:15:14.417Z,8.50
2018-01-04T06:17:43.372Z,8.50
2018-01-04T06:20:12.331Z,8.70
2018-01-04T06:22:41.306Z,8.50
2018-01-04T06:25:15.099Z,8.60
2018-01-04T06:27:44.064Z,8.60
2018-01-04T06:30:13.799Z,8.70
2018-01-04T06:32:46.276Z,8.70
2018-01-04T06:35:15.261Z,8.80
2018-01-04T06:37:44.210Z,8.60
2018-01-04T06:40:25.103Z,8.40
2018-01-04T06:42:54.827Z,8.40
2018-01-04T06:45:23.811Z,8.30
2018-01-04T06:47:52.762Z,8.20
2018-01-04T06:50:21.749Z,8.10
2018-01-04T06:52:50.702Z,8.30
2018-01-04T06:55:19.664Z,8.20
2018-01-04T06:57:48.626Z,8.20
2018-01-04T07:00:17.576Z,8.30
2018-01-04T07:02:50.656Z,8.20
2018-01-04T07:05:21.424Z,8.20
2018-01-04T07:07:51.312Z,8.30
2018-01-04T07:10:20.268Z,8.30
2018-01-04T07:12:49.226Z,8.30
2018-01-04T07:15:18.175Z,8.20
2018-01-04T07:17:47.883Z,8.10
2018-01-04T07:20:17.615Z,8.20
2018-01-04T07:22:46.556Z,8.20
2018-01-04T07:25:18.876Z,8.10
2018-01-04T07:27:47.815Z,8.20
2018-01-04T07:30:16.782Z,8.20
2018-01-04T07:32:46.890Z,8.10
2018-01-04T07:35:41.845Z,8.30
2018-01-04T07:41:30.259Z,8.20
2018-01-04T07:43:59.220Z,8.30
2018-01-04T07:46:28.934Z,8.30
2018-01-04T07:48:58.672Z,8.30
2018-01-04T07:51:27.625Z,8.40
2018-01-04T07:53:57.401Z,8.50
2018-01-04T07:56:26.332Z,8.50
2018-01-04T07:58:56.051Z,8.50
2018-01-04T08:01:25.473Z,8.60
2018-01-04T08:03:54.467Z,8.60
2018-01-04T08:06:23.433Z,8.50
2018-01-04T08:08:53.156Z,8.50
2018-01-04T08:11:22.119Z,8.60
2018-01-04T08:13:51.078Z,8.60
2018-01-04T08:16:20.048Z,8.60
2018-01-04T08:18:49.004Z,8.70
2018-01-04T08:21:18.752Z,8.80
2018-01-04T08:23:57.467Z,8.80
2018-01-04T08:26:32.334Z,8.60
2018-01-04T08:29:01.961Z,8.70
2018-01-04T08:31:31.051Z,8.70
2018-01-04T08:34:01.517Z,8.60
2018-01-04T08:36:30.467Z,8.60
2018-01-04T08:38:59.414Z,8.70
2018-01-04T08:41:28.396Z,8.60
2018-01-04T08:43:57.403Z,8.60
2018-01-04T08:46:26.350Z,8.60
2018-01-04T08:49:01.707Z,8.50
2018-01-04T08:51:31.415Z,8.50
2018-01-04T08:54:01.158Z,8.40
2018-01-04T08:56:30.101Z,8.40
2018-01-04T08:58:59.039Z,8.50
2018-01-04T09:01:28.013Z,8.50
2018-01-04T09:03:56.991Z,8.60
2018-01-04T09:12:49.996Z,8.50
2018-01-04T09:15:19.700Z,8.60
2018-01-04T09:17:49.443Z,8.60
2018-01-04T09:20:18.392Z,8.70
2018-01-04T09:22:48.094Z,8.70
2018-01-04T09:25:17.052Z,8.40
2018-01-04T09:27:46.045Z,8.70
2018-01-04T09:30:14.947Z,8.70
2018-01-04T09:32:43.899Z,8.60
2018-01-04T09:35:12.842Z,8.60
2018-01-04T09:37:41.811Z,8.60
2018-01-04T09:40:10.774Z,8.70
2018-01-04T09:42:39.871Z,8.70
2018-01-04T09:45:09.770Z,8.80
2018-01-04T09:47:46.116Z,8.70
2018-01-04T09:50:15.837Z,8.70
2018-01-04T09:52:53.391Z,8.70
2018-01-04T09:55:44.054Z,8.50
2018-01-04T09:58:16.838Z,8.50
2018-01-04T10:00:46.844Z,8.40
2018-01-04T10:03:15.797Z,8.40
2018-01-04T10:05:44.742Z,8.10
2018-01-04T10:08:18.132Z,8.40
2018-01-04T10:10:47.080Z,8.30
2018-01-04T10:13:16.816Z,8.20
2018-01-04T10:15:45.776Z,8.30
2018-01-04T10:18:14.732Z,8.20
2018-01-04T10:20:43.688Z,8.30
2018-01-04T10:23:12.659Z,8.30
2018-01-04T10:25:49.023Z,8.20
2018-01-04T10:28:28.539Z,8.20
2018-01-04T10:30:57.587Z,8.30
2018-01-04T10:33:32.642Z,8.40
2018-01-04T10:36:01.606Z,8.30
2018-01-04T10:38:31.428Z,8.30
2018-01-04T10:41:00.381Z,8.30
2018-01-04T10:43:29.336Z,8.30
2018-01-04T10:45:58.307Z,8.20
2018-01-04T10:48:27.251Z,8.30
2018-01-04T10:50:56.208Z,8.30
2018-01-04T10:53:26.062Z,8.30
2018-01-04T10:55:55.913Z,8.30
2018-01-04T10:58:24.864Z,8.40
2018-01-04T11:00:59.786Z,8.30
2018-01-04T11:03:58.100Z,8.30
2018-01-04T11:06:35.612Z,8.30
2018-01-04T11:09:04.661Z,8.40
2018-01-04T11:11:34.905Z,8.30
2018-01-04T11:14:03.881Z,8.30
2018-01-04T11:16:32.835Z,8.40
2018-01-04T11:19:02.801Z,8.40
2018-01-04T11:21:32.512Z,8.40
2018-01-04T11:24:01.476Z,8.30
2018-01-04T11:26:30.439Z,8.40
2018-01-04T11:28:59.400Z,8.30
2018-01-04T11:31:28.354Z,8.30
2018-01-04T11:33:57.335Z,8.30
2018-01-04T11:36:26.275Z,8.30
2018-01-04T11:38:55.232Z,8.30
2018-01-04T11:41:24.500Z,8.30
2018-01-04T11:43:53.461Z,8.30
2018-01-04T11:46:22.453Z,8.40
2018-01-04T11:48:51.395Z,8.40
2018-01-04T11:51:20.342Z,8.30
2018-01-04T11:53:49.299Z,8.40
2018-01-04T11:56:18.264Z,8.40
2018-01-04T11:58:47.217Z,8.50
2018-01-04T12:01:16.193Z,8.60
2018-01-04T12:03:45.163Z,8.70
2018-01-04T12:06:14.147Z,8.60
2018-01-04T12:08:43.104Z,8.70
2018-01-04T12:11:12.047Z,8.70
2018-01-04T12:13:41.004Z,8.80
2018-01-04T12:16:09.957Z,8.80
2018-01-04T12:18:38.911Z,8.80
2018-01-04T12:21:07.855Z,8.90
2018-01-04T12:23:36.817Z,8.90
2018-01-04T12:26:06.540Z,8.90
2018-01-04T12:28:36.275Z,8.90
2018-01-04T12:31:05.219Z,8.90
2018-01-04T12:33:34.159Z,8.90
2018-01-04T12:36:03.107Z,8.90
2018-01-04T12:38:32.817Z,8.90
2018-01-04T12:41:01.774Z,8.80
2018-01-04T12:43:30.716Z,8.80
2018-01-04T12:46:00.435Z,8.90
2018-01-04T12:48:29.397Z,8.80
2018-01-04T12:50:58.342Z,8.80
2018-01-04T12:53:27.295Z,8.90
2018-01-04T12:55:57.026Z,8.80
2018-01-04T12:58:25.974Z,8.80
2018-01-04T13:00:54.915Z,8.80
2018-01-04T13:03:23.871Z,8.80
2018-01-04T13:05:53.581Z,8.80
2018-01-04T13:08:23.304Z,8.80
2018-01-04T13:10:52.256Z,8.70
2018-01-04T13:13:21.200Z,8.90
2018-01-04T13:15:50.156Z,8.80
2018-01-04T13:18:19.107Z,8.80
2018-01-04T13:20:48.085Z,8.80
2018-01-04T13:23:17.048Z,8.80
2018-01-04T13:25:46.762Z,8.90
2018-01-04T13:28:16.476Z,8.80
2018-01-04T13:30:46.194Z,8.90
2018-01-04T13:33:15.143Z,8.90
2018-01-04T13:35:44.104Z,8.90
2018-01-04T13:38:13.052Z,8.80
2018-01-04T13:40:42.771Z,8.80
2018-01-04T13:43:12.479Z,8.80
2018-01-04T13:45:42.204Z,8.80
2018-01-04T13:48:11.163Z,8.90
2018-01-04T13:50:40.106Z,8.90
2018-01-04T13:53:09.068Z,8.80
2018-01-04T13:55:38.795Z,8.80
2018-01-04T13:58:07.743Z,8.90
2018-01-04T14:00:36.694Z,8.70
2018-01-04T14:03:09.500Z,8.70
2018-01-04T14:05:38.435Z,8.70
2018-01-04T14:08:07.387Z,8.70
2018-01-04T14:10:42.679Z,8.70
2018-01-04T14:13:11.632Z,8.80
2018-01-04T14:15:40.579Z,8.80
2018-01-04T14:18:09.532Z,8.90
2018-01-04T14:20:39.244Z,8.80
2018-01-04T14:23:08.968Z,8.80
2018-01-04T14:25:41.852Z,8.70
2018-01-04T14:28:10.816Z,8.70
2018-01-04T14:30:40.452Z,8.90
2018-01-04T14:33:09.427Z,8.80
2018-01-04T14:35:39.142Z,8.80
2018-01-04T14:38:13.980Z,8.90
2018-01-04T14:40:49.623Z,8.80
2018-01-04T14:43:24.564Z,8.80
2018-01-04T14:45:59.456Z,8.90
2018-01-04T14:48:35.183Z,8.80
2018-01-04T14:51:09.972Z,8.70
2018-01-04T14:53:44.879Z,8.70
2018-01-04T14:56:19.919Z,8.80
2018-01-04T14:58:54.863Z,8.80
2018-01-04T15:01:30.607Z,8.80
2018-01-04T15:04:05.554Z,8.80
2018-01-04T15:06:50.792Z,8.90
2018-01-04T15:09:25.787Z,8.90
2018-01-04T15:12:00.707Z,8.80
2018-01-04T15:14:35.550Z,8.90
2018-01-04T15:17:10.396Z,8.90
2018-01-04T15:19:45.318Z,8.90
2018-01-04T15:22:20.325Z,8.90
2018-01-04T15:24:55.308Z,9.00
2018-01-04T15:27:32.744Z,9.10
2018-01-04T15:30:07.758Z,9.10
2018-01-04T15:32:42.626Z,9.20
2018-01-04T15:35:20.507Z,9.20
2018-01-04T15:37:55.455Z,9.50
2018-01-04T15:40:30.464Z,9.70
2018-01-04T15:43:05.280Z,9.90
2018-01-04T15:45:40.353Z,10.30
2018-01-04T15:48:15.189Z,10.60
2018-01-04T15:50:50.133Z,10.90
2018-01-04T15:53:25.128Z,11.20
2018-01-04T15:56:09.895Z,11.30
2018-01-04T15:58:44.914Z,11.50
2018-01-04T16:01:19.960Z,11.60
2018-01-04T16:03:54.780Z,11.70
2018-01-04T16:06:29.386Z,11.90
2018-01-04T16:08:59.240Z,12.00
2018-01-04T16:11:34.056Z,12.10
2018-01-04T16:14:08.997Z,12.20
2018-01-04T16:16:47.110Z,12.30
2018-01-04T16:19:22.027Z,12.40
2018-01-04T16:21:56.852Z,12.30
2018-01-04T16:24:31.621Z,12.50
2018-01-04T16:27:06.507Z,12.50
2018-01-04T16:29:41.304Z,12.40
2018-01-04T16:32:17.238Z,12.60
2018-01-04T16:34:52.147Z,12.70
2018-01-04T16:37:31.586Z,12.70
2018-01-04T16:40:21.289Z,12.70
2018-01-04T16:42:56.235Z,12.80
2018-01-04T16:45:31.044Z,12.80
2018-01-04T16:48:06.041Z,12.90
2018-01-04T16:50:35.066Z,13.00
2018-01-04T16:53:04.025Z,12.80
2018-01-04T16:55:32.992Z,13.00
2018-01-04T16:58:03.732Z,12.90
2018-01-04T17:00:34.401Z,13.00
2018-01-04T17:03:03.364Z,12.70
2018-01-04T17:05:33.105Z,12.90
2018-01-04T17:08:02.056Z,12.90
2018-01-04T17:10:31.803Z,13.10
2018-01-04T17:13:00.764Z,13.10
2018-01-04T17:15:31.456Z,13.00
2018-01-04T17:18:25.413Z,13.10
2018-01-04T17:20:54.378Z,13.10
2018-01-04T17:23:24.316Z,13.10
2018-01-04T17:25:53.444Z,13.10
2018-01-04T17:28:22.399Z,13.00
2018-01-04T17:30:51.373Z,13.10
2018-01-04T17:33:20.339Z,13.00
2018-01-04T17:35:51.220Z,13.20
2018-01-04T17:38:23.495Z,13.10
2018-01-04T17:40:55.499Z,13.00
2018-01-04T17:43:36.873Z,12.70
2018-01-04T17:46:05.828Z,12.90
2018-01-04T17:48:34.802Z,12.90
2018-01-04T17:51:03.760Z,13.00
2018-01-04T17:53:37.830Z,13.20
2018-01-04T17:56:06.806Z,13.10
2018-01-04T17:58:35.806Z,13.10
2018-01-04T18:01:14.508Z,13.10
2018-01-04T18:03:44.255Z,13.00
2018-01-04T18:06:13.220Z,12.90
2018-01-04T18:08:46.732Z,13.10
2018-01-04T18:11:16.708Z,13.00
2018-01-04T18:13:45.619Z,13.00
2018-01-04T18:16:37.978Z,13.10
2018-01-04T18:19:12.514Z,13.20
2018-01-04T18:21:42.597Z,13.20
2018-01-04T18:24:12.750Z,13.20
2018-01-04T18:26:42.780Z,13.10
2018-01-04T18:29:12.613Z,13.20
2018-01-04T18:31:47.522Z,13.20
2018-01-04T18:34:16.474Z,13.20
2018-01-04T18:36:45.431Z,13.30
2018-01-04T18:39:14.393Z,13.20
2018-01-04T18:41:50.008Z,13.20
2018-01-04T18:44:18.982Z,13.20
2018-01-04T18:47:15.486Z,13.10
2018-01-04T18:49:44.459Z,12.90
2018-01-04T18:52:24.209Z,12.90
2018-01-04T18:54:53.135Z,12.90
2018-01-04T18:57:22.092Z,12.90
2018-01-04T18:59:56.220Z,12.60
2018-01-04T19:02:25.250Z,12.90
2018-01-04T19:04:54.994Z,12.90
2018-01-04T19:07:23.963Z,13.00
2018-01-04T19:09:52.979Z,12.90
2018-01-04T19:12:22.003Z,13.00
2018-01-04T19:15:09.609Z,13.00
2018-01-04T19:17:38.607Z,13.10
2018-01-04T19:20:07.626Z,13.00
2018-01-04T19:22:36.566Z,13.10
2018-01-04T19:25:05.574Z,13.10
2018-01-04T19:27:34.554Z,13.20
2018-01-04T19:30:03.603Z,13.20
2018-01-04T19:32:41.492Z,13.20
2018-01-04T19:35:11.241Z,13.20
2018-01-04T19:37:40.262Z,13.20
2018-01-04T19:40:15.157Z,13.20
2018-01-04T19:42:44.908Z,13.20
2018-01-04T19:45:16.220Z,13.00
2018-01-04T19:47:45.272Z,13.10
2018-01-04T19:50:22.795Z,12.90
2018-01-04T19:52:52.554Z,13.20
2018-01-04T19:55:21.530Z,13.00
2018-01-04T19:57:50.493Z,13.10
2018-01-04T20:00:20.238Z,13.20
2018-01-04T20:02:59.558Z,13.20
2018-01-04T20:05:29.368Z,13.10
2018-01-04T20:07:59.165Z,13.20
2018-01-04T20:10:28.900Z,13.10
2018-01-04T20:12:57.877Z,13.20
2018-01-04T20:15:26.866Z,13.20
2018-01-04T20:17:56.619Z,13.20
2018-01-04T20:20:25.597Z,13.20
2018-01-04T20:22:54.611Z,13.20
2018-01-04T20:25:34.824Z,13.20
2018-01-04T20:28:12.220Z,13.20
2018-01-04T20:30:41.167Z,13.00
2018-01-04T20:33:10.351Z,13.10
2018-01-04T20:35:39.432Z,13.10
2018-01-04T20:38:08.519Z,13.20
2018-01-04T20:40:37.590Z,13.30
2018-01-04T20:43:07.404Z,13.30
2018-01-04T20:45:36.387Z,13.10
2018-01-04T20:48:05.351Z,13.10
2018-01-04T20:50:34.359Z,13.20
2018-01-04T20:53:04.120Z,13.20
2018-01-04T20:55:33.106Z,13.20
2018-01-04T20:58:02.244Z,13.10
2018-01-04T21:00:48.351Z,13.20
2018-01-04T21:03:18.096Z,13.10
2018-01-04T21:05:53.068Z,13.20
2018-01-04T21:08:22.096Z,12.90
2018-01-04T21:10:53.682Z,13.00
2018-01-04T21:13:40.132Z,13.10
2018-01-04T21:16:09.124Z,13.10
2018-01-04T21:21:48.854Z,12.90
2018-01-04T21:24:17.917Z,13.00
2018-01-04T21:26:46.955Z,12.90
2018-01-04T21:29:16.889Z,12.90
2018-01-04T21:31:45.865Z,12.80
2018-01-04T21:34:14.846Z,12.90
2018-01-04T21:36:44.761Z,12.90
2018-01-04T21:39:13.841Z,12.90
2018-01-04T21:41:42.914Z,12.90
2018-01-04T21:44:16.060Z,12.90
2018-01-04T21:46:45.016Z,12.50
2018-01-04T21:49:13.995Z,12.50
2018-01-04T21:51:48.814Z,12.20
2018-01-04T21:54:19.668Z,12.30
2018-01-04T21:56:48.699Z,11.90
2018-01-04T21:59:17.780Z,12.10
2018-01-04T22:01:46.796Z,12.10
2018-01-04T22:04:28.538Z,12.10
2018-01-04T22:06:58.156Z,11.90
2018-01-04T22:09:28.001Z,11.80
2018-01-04T22:12:03.499Z,11.70
2018-01-04T22:14:34.469Z,11.40
2018-01-04T22:17:03.499Z,11.50
2018-01-04T22:19:32.645Z,11.30
2018-01-04T22:22:01.840Z,11.30
2018-01-04T22:24:37.845Z,11.40
2018-01-04T22:27:08.677Z,11.50
2018-01-04T22:29:37.809Z,11.40
2018-01-04T22:32:06.808Z,11.10
2018-01-04T22:34:35.924Z,11.00
2018-01-04T22:37:04.924Z,11.00
2018-01-04T22:39:33.972Z,11.00
2018-01-04T22:42:33.820Z,10.70
2018-01-04T22:45:02.866Z,10.40
2018-01-04T22:47:35.102Z,10.50
2018-01-04T22:50:10.836Z,10.60
2018-01-04T22:52:40.850Z,10.50
2018-01-04T22:55:09.866Z,10.30
2018-01-04T22:57:40.941Z,10.20
2018-01-04T23:00:11.743Z,10.30
2018-01-04T23:02:44.960Z,9.80
2018-01-04T23:05:26.733Z,9.90
2018-01-04T23:07:55.726Z,9.80
2018-01-04T23:10:24.773Z,10.00
2018-01-04T23:12:53.944Z,9.80
2018-01-04T23:15:24.659Z,9.50
2018-01-04T23:18:00.228Z,9.70
2018-01-04T23:20:29.290Z,9.50
2018-01-04T23:22:58.258Z,9.50
2018-01-04T23:25:33.500Z,9.50
2018-01-04T23:28:02.729Z,9.60
2018-01-04T23:30:32.661Z,9.60
2018-01-04T23:33:02.503Z,9.40
2018-01-04T23:35:36.861Z,9.50
2018-01-04T23:38:06.041Z,9.40
2018-01-04T23:40:35.252Z,9.20
2018-01-04T23:43:04.456Z,9.20
2018-01-04T23:45:34.256Z,9.20
2018-01-04T23:48:06.173Z,9.30
2018-01-04T23:50:35.183Z,9.30
2018-01-04T23:53:04.343Z,9.00
2018-01-04T23:55:34.369Z,9.10
2018-01-04T23:58:04.221Z,9.10
